sensor_id;sensor_type;location;lat;lon;timestamp;P1;durP1;ratioP1;P2;durP2;ratioP2
21162;SDS011;10739;52.198;20.908;2023-11-18T00:01:37;28.27;;;17.25;;
21162;SDS011;10739;52.198;20.908;2023-11-18T00:04:03;25.10;;;17.38;;
21162;SDS011;10739;52.198;20.908;2023-11-18T00:06:33;23.15;;;16.13;;
21162;SDS011;10739;52.198;20.908;2023-11-18T00:08:59;27.13;;;17.40;;
21162;SDS011;10739;52.198;20.908;2023-11-18T00:11:26;26.83;;;17.42;;
21162;SDS011;10739;52.198;20.908;2023-11-18T00:13:52;25.50;;;17.48;;
21162;SDS011;10739;52.198;20.908;2023-11-18T00:16:19;24.63;;;17.30;;
21162;SDS011;10739;52.198;20.908;2023-11-18T00:18:45;25.27;;;17.10;;
21162;SDS011;10739;52.198;20.908;2023-11-18T00:21:12;24.45;;;17.08;;
21162;SDS011;10739;52.198;20.908;2023-11-18T00:23:38;25.95;;;16.55;;
21162;SDS011;10739;52.198;20.908;2023-11-18T00:26:04;22.77;;;15.93;;
21162;SDS011;10739;52.198;20.908;2023-11-18T00:28:32;26.23;;;16.27;;
21162;SDS011;10739;52.198;20.908;2023-11-18T00:30:58;26.30;;;17.00;;
21162;SDS011;10739;52.198;20.908;2023-11-18T00:33:25;25.00;;;16.17;;
21162;SDS011;10739;52.198;20.908;2023-11-18T00:35:51;24.70;;;16.27;;
21162;SDS011;10739;52.198;20.908;2023-11-18T00:38:18;25.85;;;17.05;;
21162;SDS011;10739;52.198;20.908;2023-11-18T00:40:44;23.73;;;15.48;;
21162;SDS011;10739;52.198;20.908;2023-11-18T00:43:11;22.70;;;15.30;;
21162;SDS011;10739;52.198;20.908;2023-11-18T00:45:37;24.60;;;16.35;;
21162;SDS011;10739;52.198;20.908;2023-11-18T00:48:04;23.00;;;16.50;;
21162;SDS011;10739;52.198;20.908;2023-11-18T00:50:31;22.05;;;15.38;;
21162;SDS011;10739;52.198;20.908;2023-11-18T00:52:58;21.55;;;15.13;;
21162;SDS011;10739;52.198;20.908;2023-11-18T00:55:25;23.63;;;15.35;;
21162;SDS011;10739;52.198;20.908;2023-11-18T00:57:52;20.08;;;14.23;;
21162;SDS011;10739;52.198;20.908;2023-11-18T01:00:18;22.23;;;14.77;;
21162;SDS011;10739;52.198;20.908;2023-11-18T01:02:48;21.27;;;13.93;;
21162;SDS011;10739;52.198;20.908;2023-11-18T01:05:15;21.35;;;13.95;;
21162;SDS011;10739;52.198;20.908;2023-11-18T01:07:42;20.88;;;14.45;;
21162;SDS011;10739;52.198;20.908;2023-11-18T01:10:09;21.55;;;14.63;;
21162;SDS011;10739;52.198;20.908;2023-11-18T01:12:36;20.77;;;14.25;;
21162;SDS011;10739;52.198;20.908;2023-11-18T01:15:03;21.23;;;13.80;;
21162;SDS011;10739;52.198;20.908;2023-11-18T01:17:30;19.45;;;13.43;;
21162;SDS011;10739;52.198;20.908;2023-11-18T01:19:56;21.15;;;14.07;;
21162;SDS011;10739;52.198;20.908;2023-11-18T01:22:24;21.30;;;14.02;;
21162;SDS011;10739;52.198;20.908;2023-11-18T01:24:50;23.15;;;13.98;;
21162;SDS011;10739;52.198;20.908;2023-11-18T01:27:17;18.88;;;13.35;;
21162;SDS011;10739;52.198;20.908;2023-11-18T01:29:45;21.10;;;14.40;;
21162;SDS011;10739;52.198;20.908;2023-11-18T01:32:12;19.73;;;14.02;;
21162;SDS011;10739;52.198;20.908;2023-11-18T01:34:39;21.05;;;13.82;;
21162;SDS011;10739;52.198;20.908;2023-11-18T01:37:06;19.83;;;14.05;;
21162;SDS011;10739;52.198;20.908;2023-11-18T01:39:33;19.38;;;13.63;;
21162;SDS011;10739;52.198;20.908;2023-11-18T01:42:00;20.23;;;13.88;;
21162;SDS011;10739;52.198;20.908;2023-11-18T01:44:26;17.75;;;13.23;;
21162;SDS011;10739;52.198;20.908;2023-11-18T01:46:56;18.85;;;13.27;;
21162;SDS011;10739;52.198;20.908;2023-11-18T01:49:31;18.63;;;13.60;;
21162;SDS011;10739;52.198;20.908;2023-11-18T01:52:05;20.27;;;14.00;;
21162;SDS011;10739;52.198;20.908;2023-11-18T01:54:34;18.60;;;13.38;;
21162;SDS011;10739;52.198;20.908;2023-11-18T01:57:06;18.25;;;13.30;;
21162;SDS011;10739;52.198;20.908;2023-11-18T01:59:34;19.45;;;12.82;;
21162;SDS011;10739;52.198;20.908;2023-11-18T02:02:03;18.40;;;13.38;;
21162;SDS011;10739;52.198;20.908;2023-11-18T02:04:31;17.00;;;12.50;;
21162;SDS011;10739;52.198;20.908;2023-11-18T02:06:58;17.48;;;12.00;;
21162;SDS011;10739;52.198;20.908;2023-11-18T02:09:29;18.67;;;12.65;;
21162;SDS011;10739;52.198;20.908;2023-11-18T02:12:00;19.85;;;13.02;;
21162;SDS011;10739;52.198;20.908;2023-11-18T02:14:47;17.48;;;11.82;;
21162;SDS011;10739;52.198;20.908;2023-11-18T02:17:17;15.57;;;12.07;;
21162;SDS011;10739;52.198;20.908;2023-11-18T02:19:56;16.08;;;12.20;;
21162;SDS011;10739;52.198;20.908;2023-11-18T02:22:25;16.48;;;12.25;;
21162;SDS011;10739;52.198;20.908;2023-11-18T02:24:52;15.18;;;11.43;;
21162;SDS011;10739;52.198;20.908;2023-11-18T02:27:18;17.10;;;12.27;;
21162;SDS011;10739;52.198;20.908;2023-11-18T02:29:47;16.70;;;12.30;;
21162;SDS011;10739;52.198;20.908;2023-11-18T02:35:10;17.50;;;12.00;;
21162;SDS011;10739;52.198;20.908;2023-11-18T02:38:08;14.82;;;10.98;;
21162;SDS011;10739;52.198;20.908;2023-11-18T02:40:36;14.75;;;11.38;;
21162;SDS011;10739;52.198;20.908;2023-11-18T02:45:35;17.13;;;11.50;;
21162;SDS011;10739;52.198;20.908;2023-11-18T02:48:04;16.45;;;10.25;;
21162;SDS011;10739;52.198;20.908;2023-11-18T02:50:31;15.52;;;11.38;;
21162;SDS011;10739;52.198;20.908;2023-11-18T02:53:00;16.10;;;11.52;;
21162;SDS011;10739;52.198;20.908;2023-11-18T02:55:27;13.90;;;10.43;;
21162;SDS011;10739;52.198;20.908;2023-11-18T02:57:54;15.27;;;11.45;;
21162;SDS011;10739;52.198;20.908;2023-11-18T03:00:20;15.68;;;10.93;;
21162;SDS011;10739;52.198;20.908;2023-11-18T03:02:49;14.55;;;10.95;;
21162;SDS011;10739;52.198;20.908;2023-11-18T03:05:20;13.60;;;9.95;;
21162;SDS011;10739;52.198;20.908;2023-11-18T03:07:47;13.55;;;9.95;;
21162;SDS011;10739;52.198;20.908;2023-11-18T03:10:19;14.18;;;10.85;;
21162;SDS011;10739;52.198;20.908;2023-11-18T03:15:18;15.30;;;10.27;;
21162;SDS011;10739;52.198;20.908;2023-11-18T03:17:45;11.43;;;8.85;;
21162;SDS011;10739;52.198;20.908;2023-11-18T03:20:16;12.38;;;9.35;;
21162;SDS011;10739;52.198;20.908;2023-11-18T03:22:47;14.98;;;9.93;;
21162;SDS011;10739;52.198;20.908;2023-11-18T03:25:16;12.68;;;9.27;;
21162;SDS011;10739;52.198;20.908;2023-11-18T03:27:47;13.32;;;9.32;;
21162;SDS011;10739;52.198;20.908;2023-11-18T03:30:14;14.60;;;10.20;;
21162;SDS011;10739;52.198;20.908;2023-11-18T03:32:42;13.85;;;8.90;;
21162;SDS011;10739;52.198;20.908;2023-11-18T03:35:08;10.43;;;8.70;;
21162;SDS011;10739;52.198;20.908;2023-11-18T03:37:35;12.13;;;8.95;;
21162;SDS011;10739;52.198;20.908;2023-11-18T03:40:10;10.40;;;8.20;;
21162;SDS011;10739;52.198;20.908;2023-11-18T03:45:11;11.50;;;8.05;;
21162;SDS011;10739;52.198;20.908;2023-11-18T03:47:40;11.35;;;8.40;;
21162;SDS011;10739;52.198;20.908;2023-11-18T03:50:06;10.15;;;8.10;;
21162;SDS011;10739;52.198;20.908;2023-11-18T03:52:35;10.60;;;8.20;;
21162;SDS011;10739;52.198;20.908;2023-11-18T03:55:03;10.93;;;8.27;;
21162;SDS011;10739;52.198;20.908;2023-11-18T03:57:30;19.40;;;9.98;;
21162;SDS011;10739;52.198;20.908;2023-11-18T03:59:56;13.82;;;9.13;;
21162;SDS011;10739;52.198;20.908;2023-11-18T04:02:22;9.80;;;7.93;;
21162;SDS011;10739;52.198;20.908;2023-11-18T04:04:50;10.18;;;7.65;;
21162;SDS011;10739;52.198;20.908;2023-11-18T04:07:17;10.57;;;8.07;;
21162;SDS011;10739;52.198;20.908;2023-11-18T04:09:43;10.05;;;7.38;;
21162;SDS011;10739;52.198;20.908;2023-11-18T04:12:10;11.38;;;8.20;;
21162;SDS011;10739;52.198;20.908;2023-11-18T04:14:37;9.15;;;7.07;;
21162;SDS011;10739;52.198;20.908;2023-11-18T04:17:03;9.25;;;7.18;;
21162;SDS011;10739;52.198;20.908;2023-11-18T04:19:29;9.40;;;7.10;;
21162;SDS011;10739;52.198;20.908;2023-11-18T04:21:56;10.40;;;7.53;;
21162;SDS011;10739;52.198;20.908;2023-11-18T04:24:22;8.82;;;7.70;;
21162;SDS011;10739;52.198;20.908;2023-11-18T04:26:48;8.73;;;7.38;;
21162;SDS011;10739;52.198;20.908;2023-11-18T04:29:15;9.23;;;7.53;;
21162;SDS011;10739;52.198;20.908;2023-11-18T04:31:41;9.32;;;7.68;;
21162;SDS011;10739;52.198;20.908;2023-11-18T04:34:08;11.18;;;7.05;;
21162;SDS011;10739;52.198;20.908;2023-11-18T04:36:34;8.90;;;6.95;;
21162;SDS011;10739;52.198;20.908;2023-11-18T04:39:00;9.82;;;7.47;;
21162;SDS011;10739;52.198;20.908;2023-11-18T04:41:28;8.88;;;7.25;;
21162;SDS011;10739;52.198;20.908;2023-11-18T04:43:54;9.45;;;7.50;;
21162;SDS011;10739;52.198;20.908;2023-11-18T04:46:20;12.63;;;9.93;;
21162;SDS011;10739;52.198;20.908;2023-11-18T04:48:47;9.85;;;7.35;;
21162;SDS011;10739;52.198;20.908;2023-11-18T04:51:13;8.98;;;7.47;;
21162;SDS011;10739;52.198;20.908;2023-11-18T04:53:40;8.98;;;7.57;;
21162;SDS011;10739;52.198;20.908;2023-11-18T04:56:06;9.38;;;7.78;;
21162;SDS011;10739;52.198;20.908;2023-11-18T04:58:37;10.25;;;7.72;;
21162;SDS011;10739;52.198;20.908;2023-11-18T05:01:05;9.40;;;7.35;;
21162;SDS011;10739;52.198;20.908;2023-11-18T05:03:31;9.85;;;7.63;;
21162;SDS011;10739;52.198;20.908;2023-11-18T05:06:02;10.70;;;7.75;;
21162;SDS011;10739;52.198;20.908;2023-11-18T05:08:29;9.40;;;7.88;;
21162;SDS011;10739;52.198;20.908;2023-11-18T05:10:56;9.52;;;8.25;;
21162;SDS011;10739;52.198;20.908;2023-11-18T05:13:23;10.77;;;7.97;;
21162;SDS011;10739;52.198;20.908;2023-11-18T05:15:51;9.98;;;8.13;;
21162;SDS011;10739;52.198;20.908;2023-11-18T05:18:19;8.73;;;7.47;;
21162;SDS011;10739;52.198;20.908;2023-11-18T05:20:46;9.13;;;7.72;;
21162;SDS011;10739;52.198;20.908;2023-11-18T05:23:13;9.13;;;7.80;;
21162;SDS011;10739;52.198;20.908;2023-11-18T05:25:39;11.15;;;8.20;;
21162;SDS011;10739;52.198;20.908;2023-11-18T05:28:08;9.38;;;7.82;;
21162;SDS011;10739;52.198;20.908;2023-11-18T05:30:38;9.48;;;7.68;;
21162;SDS011;10739;52.198;20.908;2023-11-18T05:33:10;10.75;;;7.20;;
21162;SDS011;10739;52.198;20.908;2023-11-18T05:35:43;8.38;;;7.32;;
21162;SDS011;10739;52.198;20.908;2023-11-18T05:38:15;9.18;;;7.35;;
21162;SDS011;10739;52.198;20.908;2023-11-18T05:40:44;9.27;;;7.50;;
21162;SDS011;10739;52.198;20.908;2023-11-18T05:43:25;10.00;;;6.97;;
21162;SDS011;10739;52.198;20.908;2023-11-18T05:45:58;9.20;;;7.50;;
21162;SDS011;10739;52.198;20.908;2023-11-18T05:48:43;9.23;;;7.45;;
21162;SDS011;10739;52.198;20.908;2023-11-18T05:51:10;9.88;;;6.93;;
21162;SDS011;10739;52.198;20.908;2023-11-18T05:53:40;10.05;;;7.93;;
21162;SDS011;10739;52.198;20.908;2023-11-18T05:56:11;10.23;;;7.03;;
21162;SDS011;10739;52.198;20.908;2023-11-18T05:58:39;10.93;;;7.28;;
21162;SDS011;10739;52.198;20.908;2023-11-18T06:01:05;8.70;;;7.15;;
21162;SDS011;10739;52.198;20.908;2023-11-18T06:03:33;11.40;;;7.45;;
21162;SDS011;10739;52.198;20.908;2023-11-18T06:06:07;9.15;;;7.10;;
21162;SDS011;10739;52.198;20.908;2023-11-18T06:08:38;10.10;;;6.85;;
21162;SDS011;10739;52.198;20.908;2023-11-18T06:11:08;10.57;;;7.77;;
21162;SDS011;10739;52.198;20.908;2023-11-18T06:13:43;10.60;;;7.35;;
21162;SDS011;10739;52.198;20.908;2023-11-18T06:16:18;8.32;;;7.03;;
21162;SDS011;10739;52.198;20.908;2023-11-18T06:18:53;11.18;;;7.47;;
21162;SDS011;10739;52.198;20.908;2023-11-18T06:23:50;10.20;;;7.20;;
21162;SDS011;10739;52.198;20.908;2023-11-18T06:26:17;11.25;;;8.02;;
21162;SDS011;10739;52.198;20.908;2023-11-18T06:28:46;9.15;;;7.28;;
21162;SDS011;10739;52.198;20.908;2023-11-18T06:31:16;10.00;;;7.88;;
21162;SDS011;10739;52.198;20.908;2023-11-18T06:33:44;9.88;;;7.85;;
21162;SDS011;10739;52.198;20.908;2023-11-18T06:38:39;11.40;;;7.90;;
21162;SDS011;10739;52.198;20.908;2023-11-18T06:41:07;10.23;;;7.20;;
21162;SDS011;10739;52.198;20.908;2023-11-18T06:43:40;10.40;;;7.45;;
21162;SDS011;10739;52.198;20.908;2023-11-18T06:46:18;10.50;;;7.68;;
21162;SDS011;10739;52.198;20.908;2023-11-18T06:48:49;15.32;;;8.25;;
21162;SDS011;10739;52.198;20.908;2023-11-18T06:51:22;9.98;;;7.28;;
21162;SDS011;10739;52.198;20.908;2023-11-18T06:53:53;10.73;;;8.52;;
21162;SDS011;10739;52.198;20.908;2023-11-18T06:56:20;11.40;;;7.68;;
21162;SDS011;10739;52.198;20.908;2023-11-18T06:58:47;10.05;;;7.82;;
21162;SDS011;10739;52.198;20.908;2023-11-18T07:01:13;10.50;;;8.00;;
21162;SDS011;10739;52.198;20.908;2023-11-18T07:03:41;10.07;;;7.68;;
21162;SDS011;10739;52.198;20.908;2023-11-18T07:06:08;10.85;;;7.88;;
21162;SDS011;10739;52.198;20.908;2023-11-18T07:08:35;11.38;;;7.88;;
21162;SDS011;10739;52.198;20.908;2023-11-18T07:11:03;11.93;;;7.80;;
21162;SDS011;10739;52.198;20.908;2023-11-18T07:13:31;12.30;;;7.97;;
21162;SDS011;10739;52.198;20.908;2023-11-18T07:16:03;11.87;;;8.27;;
21162;SDS011;10739;52.198;20.908;2023-11-18T07:18:30;12.23;;;9.10;;
21162;SDS011;10739;52.198;20.908;2023-11-18T07:21:00;9.55;;;7.65;;
21162;SDS011;10739;52.198;20.908;2023-11-18T07:23:31;13.02;;;8.93;;
21162;SDS011;10739;52.198;20.908;2023-11-18T07:25:58;13.82;;;9.15;;
21162;SDS011;10739;52.198;20.908;2023-11-18T07:28:25;11.82;;;8.55;;
21162;SDS011;10739;52.198;20.908;2023-11-18T07:30:52;11.95;;;9.10;;
21162;SDS011;10739;52.198;20.908;2023-11-18T07:33:19;19.13;;;9.77;;
21162;SDS011;10739;52.198;20.908;2023-11-18T07:35:46;11.68;;;8.75;;
21162;SDS011;10739;52.198;20.908;2023-11-18T07:38:14;15.10;;;9.88;;
21162;SDS011;10739;52.198;20.908;2023-11-18T07:40:41;14.95;;;10.13;;
21162;SDS011;10739;52.198;20.908;2023-11-18T07:43:17;15.93;;;9.82;;
21162;SDS011;10739;52.198;20.908;2023-11-18T07:45:46;11.68;;;9.05;;
21162;SDS011;10739;52.198;20.908;2023-11-18T07:48:18;12.90;;;9.23;;
21162;SDS011;10739;52.198;20.908;2023-11-18T07:50:46;15.27;;;10.23;;
21162;SDS011;10739;52.198;20.908;2023-11-18T07:53:13;12.88;;;8.98;;
21162;SDS011;10739;52.198;20.908;2023-11-18T07:55:39;15.80;;;10.15;;
21162;SDS011;10739;52.198;20.908;2023-11-18T07:58:09;15.45;;;9.25;;
21162;SDS011;10739;52.198;20.908;2023-11-18T08:00:40;13.07;;;8.80;;
21162;SDS011;10739;52.198;20.908;2023-11-18T08:03:08;13.40;;;8.80;;
21162;SDS011;10739;52.198;20.908;2023-11-18T08:05:39;13.40;;;9.90;;
21162;SDS011;10739;52.198;20.908;2023-11-18T08:08:11;15.68;;;10.07;;
21162;SDS011;10739;52.198;20.908;2023-11-18T08:10:39;14.85;;;10.80;;
21162;SDS011;10739;52.198;20.908;2023-11-18T08:13:08;17.77;;;12.05;;
21162;SDS011;10739;52.198;20.908;2023-11-18T08:15:39;17.33;;;12.90;;
21162;SDS011;10739;52.198;20.908;2023-11-18T08:18:08;17.10;;;11.65;;
21162;SDS011;10739;52.198;20.908;2023-11-18T08:20:37;20.63;;;13.23;;
21162;SDS011;10739;52.198;20.908;2023-11-18T08:23:04;18.15;;;12.93;;
21162;SDS011;10739;52.198;20.908;2023-11-18T08:25:31;18.83;;;13.23;;
21162;SDS011;10739;52.198;20.908;2023-11-18T08:28:01;22.20;;;13.93;;
21162;SDS011;10739;52.198;20.908;2023-11-18T08:30:29;21.38;;;13.60;;
21162;SDS011;10739;52.198;20.908;2023-11-18T08:32:55;19.85;;;12.82;;
21162;SDS011;10739;52.198;20.908;2023-11-18T08:35:22;20.92;;;14.23;;
21162;SDS011;10739;52.198;20.908;2023-11-18T08:37:49;23.60;;;15.05;;
21162;SDS011;10739;52.198;20.908;2023-11-18T08:40:16;21.98;;;14.63;;
21162;SDS011;10739;52.198;20.908;2023-11-18T08:42:47;23.98;;;15.63;;
21162;SDS011;10739;52.198;20.908;2023-11-18T08:45:16;23.20;;;15.52;;
21162;SDS011;10739;52.198;20.908;2023-11-18T08:47:53;23.23;;;15.45;;
21162;SDS011;10739;52.198;20.908;2023-11-18T08:50:23;23.50;;;15.38;;
21162;SDS011;10739;52.198;20.908;2023-11-18T08:52:51;21.60;;;15.68;;
21162;SDS011;10739;52.198;20.908;2023-11-18T08:55:29;21.02;;;15.05;;
21162;SDS011;10739;52.198;20.908;2023-11-18T08:58:10;21.67;;;13.67;;
21162;SDS011;10739;52.198;20.908;2023-11-18T09:00:55;23.00;;;14.35;;
21162;SDS011;10739;52.198;20.908;2023-11-18T09:03:38;23.77;;;14.82;;
21162;SDS011;10739;52.198;20.908;2023-11-18T09:06:11;21.70;;;14.30;;
21162;SDS011;10739;52.198;20.908;2023-11-18T09:08:44;23.35;;;15.60;;
21162;SDS011;10739;52.198;20.908;2023-11-18T09:11:18;25.13;;;15.45;;
21162;SDS011;10739;52.198;20.908;2023-11-18T09:13:48;21.75;;;14.52;;
21162;SDS011;10739;52.198;20.908;2023-11-18T09:16:19;24.48;;;16.17;;
21162;SDS011;10739;52.198;20.908;2023-11-18T09:18:47;27.13;;;17.38;;
21162;SDS011;10739;52.198;20.908;2023-11-18T09:21:16;26.63;;;15.13;;
21162;SDS011;10739;52.198;20.908;2023-11-18T09:23:50;26.00;;;15.07;;
21162;SDS011;10739;52.198;20.908;2023-11-18T09:26:17;22.73;;;16.00;;
21162;SDS011;10739;52.198;20.908;2023-11-18T09:28:43;21.15;;;15.00;;
21162;SDS011;10739;52.198;20.908;2023-11-18T09:31:10;24.33;;;15.10;;
21162;SDS011;10739;52.198;20.908;2023-11-18T09:33:37;20.98;;;14.82;;
21162;SDS011;10739;52.198;20.908;2023-11-18T09:36:10;22.98;;;15.43;;
21162;SDS011;10739;52.198;20.908;2023-11-18T09:38:38;23.95;;;15.60;;
21162;SDS011;10739;52.198;20.908;2023-11-18T09:41:06;25.33;;;16.35;;
21162;SDS011;10739;52.198;20.908;2023-11-18T09:43:39;19.67;;;14.35;;
21162;SDS011;10739;52.198;20.908;2023-11-18T09:46:11;23.90;;;14.40;;
21162;SDS011;10739;52.198;20.908;2023-11-18T09:48:48;23.33;;;14.75;;
21162;SDS011;10739;52.198;20.908;2023-11-18T09:51:27;25.15;;;16.15;;
21162;SDS011;10739;52.198;20.908;2023-11-18T09:54:10;21.50;;;14.55;;
21162;SDS011;10739;52.198;20.908;2023-11-18T09:59:52;19.70;;;14.50;;
21162;SDS011;10739;52.198;20.908;2023-11-18T10:02:49;21.95;;;14.95;;
21162;SDS011;10739;52.198;20.908;2023-11-18T10:05:16;23.58;;;14.82;;
21162;SDS011;10739;52.198;20.908;2023-11-18T10:07:47;24.88;;;16.02;;
21162;SDS011;10739;52.198;20.908;2023-11-18T10:10:15;21.70;;;15.40;;
21162;SDS011;10739;52.198;20.908;2023-11-18T10:12:42;20.55;;;14.15;;
21162;SDS011;10739;52.198;20.908;2023-11-18T10:15:30;21.67;;;15.18;;
21162;SDS011;10739;52.198;20.908;2023-11-18T10:17:57;20.98;;;14.82;;
21162;SDS011;10739;52.198;20.908;2023-11-18T10:20:50;21.45;;;14.85;;
21162;SDS011;10739;52.198;20.908;2023-11-18T10:23:21;19.60;;;14.05;;
21162;SDS011;10739;52.198;20.908;2023-11-18T10:25:49;23.23;;;14.23;;
21162;SDS011;10739;52.198;20.908;2023-11-18T10:28:24;21.23;;;14.45;;
21162;SDS011;10739;52.198;20.908;2023-11-18T10:30:57;22.52;;;14.35;;
21162;SDS011;10739;52.198;20.908;2023-11-18T10:33:37;21.30;;;13.60;;
21162;SDS011;10739;52.198;20.908;2023-11-18T10:36:19;21.13;;;14.10;;
21162;SDS011;10739;52.198;20.908;2023-11-18T10:38:49;23.35;;;14.18;;
21162;SDS011;10739;52.198;20.908;2023-11-18T10:41:18;22.17;;;14.82;;
21162;SDS011;10739;52.198;20.908;2023-11-18T10:43:45;19.00;;;13.48;;
21162;SDS011;10739;52.198;20.908;2023-11-18T10:46:13;20.42;;;13.40;;
21162;SDS011;10739;52.198;20.908;2023-11-18T10:48:45;19.85;;;13.40;;
21162;SDS011;10739;52.198;20.908;2023-11-18T10:51:17;17.90;;;12.35;;
21162;SDS011;10739;52.198;20.908;2023-11-18T10:53:49;19.02;;;12.45;;
21162;SDS011;10739;52.198;20.908;2023-11-18T10:56:28;18.00;;;11.93;;
21162;SDS011;10739;52.198;20.908;2023-11-18T10:58:58;18.58;;;11.98;;
21162;SDS011;10739;52.198;20.908;2023-11-18T11:01:32;15.68;;;11.23;;
21162;SDS011;10739;52.198;20.908;2023-11-18T11:04:04;17.95;;;11.32;;
21162;SDS011;10739;52.198;20.908;2023-11-18T11:06:31;15.77;;;11.32;;
21162;SDS011;10739;52.198;20.908;2023-11-18T11:08:59;15.70;;;11.43;;
21162;SDS011;10739;52.198;20.908;2023-11-18T11:11:28;19.70;;;11.93;;
21162;SDS011;10739;52.198;20.908;2023-11-18T11:14:05;15.65;;;11.05;;
21162;SDS011;10739;52.198;20.908;2023-11-18T11:16:40;16.38;;;11.18;;
21162;SDS011;10739;52.198;20.908;2023-11-18T11:19:15;17.40;;;11.60;;
21162;SDS011;10739;52.198;20.908;2023-11-18T11:22:10;17.85;;;11.38;;
21162;SDS011;10739;52.198;20.908;2023-11-18T11:24:54;17.40;;;11.65;;
21162;SDS011;10739;52.198;20.908;2023-11-18T11:30:31;16.52;;;11.18;;
21162;SDS011;10739;52.198;20.908;2023-11-18T11:33:29;17.90;;;12.18;;
21162;SDS011;10739;52.198;20.908;2023-11-18T11:36:07;15.98;;;11.85;;
21162;SDS011;10739;52.198;20.908;2023-11-18T11:38:41;18.40;;;12.20;;
21162;SDS011;10739;52.198;20.908;2023-11-18T11:41:12;18.65;;;12.13;;
21162;SDS011;10739;52.198;20.908;2023-11-18T11:43:47;22.35;;;13.00;;
21162;SDS011;10739;52.198;20.908;2023-11-18T11:46:15;25.08;;;13.13;;
21162;SDS011;10739;52.198;20.908;2023-11-18T11:48:51;20.15;;;13.30;;
21162;SDS011;10739;52.198;20.908;2023-11-18T11:54:06;20.02;;;13.25;;
21162;SDS011;10739;52.198;20.908;2023-11-18T11:56:44;20.75;;;14.02;;
21162;SDS011;10739;52.198;20.908;2023-11-18T11:59:15;21.38;;;13.82;;
21162;SDS011;10739;52.198;20.908;2023-11-18T12:01:42;19.75;;;14.15;;
21162;SDS011;10739;52.198;20.908;2023-11-18T12:04:14;21.35;;;13.70;;
21162;SDS011;10739;52.198;20.908;2023-11-18T12:06:48;24.95;;;15.57;;
21162;SDS011;10739;52.198;20.908;2023-11-18T12:09:18;22.42;;;16.27;;
21162;SDS011;10739;52.198;20.908;2023-11-18T12:11:47;25.92;;;17.42;;
21162;SDS011;10739;52.198;20.908;2023-11-18T12:14:14;26.23;;;17.83;;
21162;SDS011;10739;52.198;20.908;2023-11-18T12:19:37;26.05;;;17.35;;
21162;SDS011;10739;52.198;20.908;2023-11-18T12:22:15;28.92;;;17.25;;
21162;SDS011;10739;52.198;20.908;2023-11-18T12:41:35;36.80;;;20.98;;
21162;SDS011;10739;52.198;20.908;2023-11-18T12:46:49;27.55;;;17.48;;
21162;SDS011;10739;52.198;20.908;2023-11-18T12:49:23;31.52;;;19.35;;
21162;SDS011;10739;52.198;20.908;2023-11-18T12:51:50;27.70;;;17.60;;
21162;SDS011;10739;52.198;20.908;2023-11-18T12:54:25;29.08;;;18.80;;
21162;SDS011;10739;52.198;20.908;2023-11-18T12:56:54;30.48;;;20.15;;
21162;SDS011;10739;52.198;20.908;2023-11-18T12:59:21;28.65;;;19.27;;
21162;SDS011;10739;52.198;20.908;2023-11-18T13:01:49;32.28;;;21.27;;
21162;SDS011;10739;52.198;20.908;2023-11-18T13:04:22;27.20;;;17.48;;
21162;SDS011;10739;52.198;20.908;2023-11-18T13:06:53;24.55;;;17.65;;
21162;SDS011;10739;52.198;20.908;2023-11-18T13:09:21;25.55;;;17.10;;
21162;SDS011;10739;52.198;20.908;2023-11-18T13:11:57;26.10;;;16.67;;
21162;SDS011;10739;52.198;20.908;2023-11-18T13:14:30;24.42;;;15.95;;
21162;SDS011;10739;52.198;20.908;2023-11-18T13:17:08;24.48;;;15.38;;
21162;SDS011;10739;52.198;20.908;2023-11-18T13:19:39;25.88;;;15.60;;
21162;SDS011;10739;52.198;20.908;2023-11-18T13:22:10;21.60;;;13.88;;
21162;SDS011;10739;52.198;20.908;2023-11-18T13:24:39;26.90;;;15.52;;
21162;SDS011;10739;52.198;20.908;2023-11-18T13:27:13;25.60;;;15.25;;
21162;SDS011;10739;52.198;20.908;2023-11-18T13:29:45;21.60;;;14.57;;
21162;SDS011;10739;52.198;20.908;2023-11-18T13:32:15;19.02;;;13.77;;
21162;SDS011;10739;52.198;20.908;2023-11-18T13:34:43;23.35;;;14.70;;
21162;SDS011;10739;52.198;20.908;2023-11-18T13:37:10;20.63;;;14.70;;
21162;SDS011;10739;52.198;20.908;2023-11-18T13:39:42;23.85;;;15.15;;
21162;SDS011;10739;52.198;20.908;2023-11-18T13:42:21;23.10;;;14.57;;
21162;SDS011;10739;52.198;20.908;2023-11-18T13:44:53;22.50;;;14.93;;
21162;SDS011;10739;52.198;20.908;2023-11-18T13:47:32;25.85;;;15.50;;
21162;SDS011;10739;52.198;20.908;2023-11-18T13:49:58;24.88;;;14.75;;
21162;SDS011;10739;52.198;20.908;2023-11-18T13:52:25;26.50;;;15.55;;
21162;SDS011;10739;52.198;20.908;2023-11-18T13:54:51;24.65;;;15.88;;
21162;SDS011;10739;52.198;20.908;2023-11-18T13:57:23;22.70;;;14.50;;
21162;SDS011;10739;52.198;20.908;2023-11-18T13:59:50;24.85;;;15.60;;
21162;SDS011;10739;52.198;20.908;2023-11-18T14:02:17;22.60;;;15.05;;
21162;SDS011;10739;52.198;20.908;2023-11-18T14:04:44;28.05;;;15.95;;
21162;SDS011;10739;52.198;20.908;2023-11-18T14:07:13;24.67;;;15.23;;
21162;SDS011;10739;52.198;20.908;2023-11-18T14:09:45;24.63;;;15.60;;
21162;SDS011;10739;52.198;20.908;2023-11-18T14:12:12;23.85;;;15.25;;
21162;SDS011;10739;52.198;20.908;2023-11-18T14:14:40;27.02;;;14.90;;
21162;SDS011;10739;52.198;20.908;2023-11-18T14:17:07;24.08;;;15.18;;
21162;SDS011;10739;52.198;20.908;2023-11-18T14:19:35;26.40;;;16.20;;
21162;SDS011;10739;52.198;20.908;2023-11-18T14:22:03;22.42;;;14.68;;
21162;SDS011;10739;52.198;20.908;2023-11-18T14:24:33;26.58;;;15.68;;
21162;SDS011;10739;52.198;20.908;2023-11-18T14:27:00;23.88;;;15.18;;
21162;SDS011;10739;52.198;20.908;2023-11-18T14:29:26;26.33;;;15.38;;
21162;SDS011;10739;52.198;20.908;2023-11-18T14:31:53;29.08;;;17.25;;
21162;SDS011;10739;52.198;20.908;2023-11-18T14:34:20;23.23;;;15.02;;
21162;SDS011;10739;52.198;20.908;2023-11-18T14:36:46;25.40;;;16.15;;
21162;SDS011;10739;52.198;20.908;2023-11-18T14:39:12;27.02;;;15.82;;
21162;SDS011;10739;52.198;20.908;2023-11-18T14:41:43;26.63;;;16.20;;
21162;SDS011;10739;52.198;20.908;2023-11-18T14:44:11;29.83;;;15.73;;
21162;SDS011;10739;52.198;20.908;2023-11-18T14:46:38;28.10;;;17.13;;
21162;SDS011;10739;52.198;20.908;2023-11-18T14:49:06;25.42;;;16.75;;
21162;SDS011;10739;52.198;20.908;2023-11-18T14:51:33;29.75;;;16.45;;
21162;SDS011;10739;52.198;20.908;2023-11-18T14:54:01;26.75;;;16.95;;
21162;SDS011;10739;52.198;20.908;2023-11-18T14:56:27;24.02;;;15.55;;
21162;SDS011;10739;52.198;20.908;2023-11-18T14:58:54;25.20;;;16.33;;
21162;SDS011;10739;52.198;20.908;2023-11-18T15:01:21;28.17;;;17.02;;
21162;SDS011;10739;52.198;20.908;2023-11-18T15:03:47;24.67;;;15.18;;
21162;SDS011;10739;52.198;20.908;2023-11-18T15:06:14;22.98;;;15.55;;
21162;SDS011;10739;52.198;20.908;2023-11-18T15:08:41;23.35;;;17.15;;
21162;SDS011;10739;52.198;20.908;2023-11-18T15:11:08;30.58;;;18.30;;
21162;SDS011;10739;52.198;20.908;2023-11-18T15:13:35;27.80;;;17.98;;
21162;SDS011;10739;52.198;20.908;2023-11-18T15:16:02;28.58;;;18.08;;